N70CR MUHA-MUCU
Flight info
| Callsign | N70CR |
|---|---|
| Flight time | 1h 0m |
| Altitude | 33000 |
| Route | KAVUL6A APRIK J3 PUTIM CAOBA5 |
| Aircraft | C700/M-SBDGHM1RWXY/LB2 |
Departure
| Time | 2026-05-01 14:09 |
|---|---|
| Airport | José Martí International Airport (MUHA) |
Arrival
| Time | 2026-05-01 15:10 |
|---|---|
| Airport | Antonio Maceo International Airport (MUCU) |
| Time | Latitude | Longitude | Altitude | Speed | Heading |
|---|---|---|---|---|---|
| 2026-05-01 14:01 | 22.99069 | -82.41414 | 211 ft | 0 kts | 55° |
| 2026-05-01 14:03 | 22.99062 | -82.41424 | 214 ft | 2 kts | 62° |
| 2026-05-01 14:03 | 22.99060 | -82.41436 | 211 ft | 2 kts | 130° |
| 2026-05-01 14:04 | 22.99067 | -82.41440 | 211 ft | 0 kts | 191° |
| 2026-05-01 14:06 | 22.99039 | -82.41466 | 211 ft | 9 kts | 225° |
| 2026-05-01 14:06 | 22.98977 | -82.41484 | 214 ft | 11 kts | 156° |
| 2026-05-01 14:06 | 22.98903 | -82.41429 | 214 ft | 10 kts | 142° |
| 2026-05-01 14:07 | 22.98844 | -82.41377 | 214 ft | 12 kts | 125° |
| 2026-05-01 14:07 | 22.98874 | -82.41293 | 213 ft | 14 kts | 57° |
| 2026-05-01 14:07 | 22.98935 | -82.41196 | 213 ft | 17 kts | 54° |
| 2026-05-01 14:08 | 22.98954 | -82.41070 | 211 ft | 8 kts | 199° |
| 2026-05-01 14:08 | 22.98885 | -82.41084 | 210 ft | 12 kts | 189° |
| 2026-05-01 14:08 | 22.98815 | -82.41096 | 215 ft | 4 kts | 180° |
| 2026-05-01 14:08 | 22.98813 | -82.41062 | 213 ft | 7 kts | 60° |
| 2026-05-01 14:09 | 22.98823 | -82.41048 | 212 ft | 0 kts | 50° |
| 2026-05-01 14:09 | 22.98874 | -82.40971 | 213 ft | 43 kts | 56° |
| 2026-05-01 14:09 | 22.99243 | -82.40402 | 221 ft | 138 kts | 57° |
| 2026-05-01 14:09 | 22.99904 | -82.39444 | 955 ft | 165 kts | 53° |
| 2026-05-01 14:10 | 23.00596 | -82.38421 | 1785 ft | 169 kts | 57° |
| 2026-05-01 14:10 | 23.01256 | -82.37368 | 2345 ft | 168 kts | 64° |
| 2026-05-01 14:10 | 23.01454 | -82.36152 | 2822 ft | 165 kts | 91° |
| 2026-05-01 14:10 | 23.01559 | -82.34906 | 3257 ft | 170 kts | 83° |
| 2026-05-01 14:11 | 23.01787 | -82.33511 | 3913 ft | 203 kts | 82° |
| 2026-05-01 14:11 | 23.02336 | -82.30379 | 6416 ft | 218 kts | 80° |
| 2026-05-01 14:11 | 23.02620 | -82.28752 | 7708 ft | 220 kts | 81° |
| 2026-05-01 14:12 | 23.02900 | -82.27099 | 8947 ft | 231 kts | 81° |
| 2026-05-01 14:12 | 23.03211 | -82.25280 | 9913 ft | 259 kts | 80° |
| 2026-05-01 14:12 | 23.03558 | -82.23264 | 10768 ft | 285 kts | 79° |
| 2026-05-01 14:12 | 23.03941 | -82.21046 | 11622 ft | 312 kts | 79° |
| 2026-05-01 14:13 | 23.04351 | -82.18656 | 12773 ft | 326 kts | 78° |
| 2026-05-01 14:13 | 23.04768 | -82.16217 | 14204 ft | 332 kts | 78° |
| 2026-05-01 14:13 | 23.05082 | -82.13696 | 15394 ft | 343 kts | 87° |
| 2026-05-01 14:13 | 23.04873 | -82.11120 | 16599 ft | 352 kts | 99° |
| 2026-05-01 14:14 | 23.04124 | -82.08550 | 17806 ft | 363 kts | 112° |
| 2026-05-01 14:14 | 23.02900 | -82.06114 | 18867 ft | 373 kts | 119° |
| 2026-05-01 14:14 | 23.01588 | -82.03646 | 19854 ft | 381 kts | 119° |
| 2026-05-01 14:14 | 23.00258 | -82.01124 | 20826 ft | 389 kts | 119° |
| 2026-05-01 14:15 | 22.98895 | -81.98545 | 21775 ft | 398 kts | 120° |
| 2026-05-01 14:15 | 22.97514 | -81.95909 | 22725 ft | 406 kts | 120° |
| 2026-05-01 14:15 | 22.96089 | -81.93230 | 23667 ft | 414 kts | 121° |
| 2026-05-01 14:15 | 22.94641 | -81.90505 | 24469 ft | 419 kts | 121° |
| 2026-05-01 14:16 | 22.93208 | -81.87788 | 25334 ft | 423 kts | 121° |
| 2026-05-01 14:16 | 22.91740 | -81.85005 | 26206 ft | 427 kts | 121° |
| 2026-05-01 14:16 | 22.90251 | -81.82197 | 27064 ft | 432 kts | 121° |
| 2026-05-01 14:16 | 22.88745 | -81.79361 | 27898 ft | 436 kts | 121° |
| 2026-05-01 14:17 | 22.87365 | -81.76756 | 28630 ft | 440 kts | 122° |
| 2026-05-01 14:17 | 22.85831 | -81.73861 | 29429 ft | 445 kts | 122° |
| 2026-05-01 14:17 | 22.84281 | -81.70941 | 30211 ft | 449 kts | 122° |
| 2026-05-01 14:17 | 22.82712 | -81.67989 | 30887 ft | 454 kts | 122° |
| 2026-05-01 14:18 | 22.81128 | -81.65007 | 31521 ft | 459 kts | 121° |
| 2026-05-01 14:18 | 22.79548 | -81.62033 | 32113 ft | 464 kts | 121° |
| 2026-05-01 14:18 | 22.77929 | -81.58990 | 32700 ft | 469 kts | 121° |
| 2026-05-01 14:18 | 22.76823 | -81.56913 | 32983 ft | 475 kts | 121° |
| 2026-05-01 14:19 | 22.74593 | -81.52726 | 33001 ft | 491 kts | 121° |
| 2026-05-01 14:19 | 22.72881 | -81.49512 | 33007 ft | 494 kts | 121° |
| 2026-05-01 14:19 | 22.69438 | -81.43057 | 33009 ft | 495 kts | 121° |
| 2026-05-01 14:20 | 22.64288 | -81.33418 | 33007 ft | 495 kts | 121° |
| 2026-05-01 14:21 | 22.60842 | -81.26976 | 33009 ft | 495 kts | 121° |
| 2026-05-01 14:21 | 22.57392 | -81.20539 | 33010 ft | 494 kts | 121° |
| 2026-05-01 14:22 | 22.52242 | -81.10940 | 33003 ft | 494 kts | 121° |
| 2026-05-01 14:22 | 22.48791 | -81.04520 | 33014 ft | 494 kts | 121° |
| 2026-05-01 14:23 | 22.45339 | -80.98105 | 33015 ft | 493 kts | 121° |
| 2026-05-01 14:23 | 22.41889 | -80.91699 | 33007 ft | 493 kts | 121° |
| 2026-05-01 14:24 | 22.38433 | -80.85296 | 33009 ft | 493 kts | 121° |
| 2026-05-01 14:24 | 22.35005 | -80.78945 | 33004 ft | 493 kts | 121° |
| 2026-05-01 14:25 | 22.31547 | -80.72553 | 33005 ft | 493 kts | 121° |
| 2026-05-01 14:25 | 22.28090 | -80.66165 | 33017 ft | 493 kts | 121° |
| 2026-05-01 14:26 | 22.22898 | -80.56590 | 33000 ft | 492 kts | 121° |
| 2026-05-01 14:27 | 22.19463 | -80.50265 | 32995 ft | 492 kts | 121° |
| 2026-05-01 14:27 | 22.16004 | -80.43905 | 32997 ft | 491 kts | 121° |
| 2026-05-01 14:28 | 22.10824 | -80.34390 | 32993 ft | 490 kts | 121° |
| 2026-05-01 14:28 | 22.07394 | -80.28102 | 32995 ft | 489 kts | 121° |
| 2026-05-01 14:29 | 22.03946 | -80.21784 | 33007 ft | 489 kts | 121° |
| 2026-05-01 14:30 | 21.97049 | -80.09174 | 33010 ft | 488 kts | 121° |
| 2026-05-01 14:31 | 21.91903 | -79.99786 | 33009 ft | 487 kts | 121° |
| 2026-05-01 14:31 | 21.88459 | -79.93510 | 33004 ft | 486 kts | 121° |
| 2026-05-01 14:32 | 21.85013 | -79.87241 | 33003 ft | 486 kts | 121° |
| 2026-05-01 14:32 | 21.81567 | -79.80977 | 33005 ft | 486 kts | 121° |
| 2026-05-01 14:33 | 21.78125 | -79.74727 | 33006 ft | 485 kts | 121° |
| 2026-05-01 14:33 | 21.74706 | -79.68527 | 33002 ft | 485 kts | 121° |
| 2026-05-01 14:34 | 21.71262 | -79.62289 | 33007 ft | 485 kts | 121° |
| 2026-05-01 14:34 | 21.67817 | -79.56056 | 33000 ft | 485 kts | 121° |
| 2026-05-01 14:35 | 21.64370 | -79.49827 | 33000 ft | 485 kts | 121° |
| 2026-05-01 14:35 | 21.60945 | -79.43645 | 32998 ft | 484 kts | 121° |
| 2026-05-01 14:36 | 21.57500 | -79.37434 | 33013 ft | 484 kts | 121° |
| 2026-05-01 14:36 | 21.54054 | -79.31229 | 33005 ft | 484 kts | 121° |
| 2026-05-01 14:37 | 21.50606 | -79.25025 | 32997 ft | 484 kts | 121° |
| 2026-05-01 14:37 | 21.47155 | -79.18825 | 32997 ft | 484 kts | 121° |
| 2026-05-01 14:38 | 21.43728 | -79.12674 | 33012 ft | 484 kts | 121° |
| 2026-05-01 14:38 | 21.40272 | -79.06478 | 33005 ft | 484 kts | 121° |
| 2026-05-01 14:39 | 21.36816 | -79.00288 | 32999 ft | 483 kts | 121° |
| 2026-05-01 14:39 | 21.33361 | -78.94109 | 33000 ft | 483 kts | 121° |
| 2026-05-01 14:40 | 21.29930 | -78.87977 | 32996 ft | 483 kts | 121° |
| 2026-05-01 14:40 | 21.26472 | -78.81808 | 32993 ft | 483 kts | 121° |
| 2026-05-01 14:41 | 21.23016 | -78.75645 | 33003 ft | 482 kts | 121° |
| 2026-05-01 14:41 | 21.19559 | -78.69488 | 32997 ft | 482 kts | 121° |
| 2026-05-01 14:42 | 21.16099 | -78.63329 | 32993 ft | 482 kts | 121° |
| 2026-05-01 14:42 | 21.13328 | -78.56851 | 32996 ft | 482 kts | 114° |
| 2026-05-01 14:43 | 21.10602 | -78.50293 | 32993 ft | 482 kts | 114° |
| 2026-05-01 14:43 | 21.07926 | -78.43719 | 32994 ft | 481 kts | 113° |
| 2026-05-01 14:44 | 21.05223 | -78.37171 | 33003 ft | 481 kts | 114° |
| 2026-05-01 14:44 | 21.01204 | -78.27396 | 32994 ft | 480 kts | 114° |
| 2026-05-01 14:45 | 20.97162 | -78.17593 | 33002 ft | 480 kts | 113° |
| 2026-05-01 14:46 | 20.94464 | -78.11065 | 32994 ft | 480 kts | 113° |
| 2026-05-01 14:46 | 20.90422 | -78.01287 | 32998 ft | 479 kts | 113° |
| 2026-05-01 14:47 | 20.87739 | -77.94823 | 33000 ft | 479 kts | 113° |
| 2026-05-01 14:48 | 20.83688 | -77.85057 | 33003 ft | 479 kts | 113° |
| 2026-05-01 14:48 | 20.79632 | -77.75306 | 33002 ft | 479 kts | 113° |
| 2026-05-01 14:49 | 20.74238 | -77.62363 | 33005 ft | 478 kts | 113° |
| 2026-05-01 14:50 | 20.68831 | -77.49409 | 33012 ft | 477 kts | 113° |
| 2026-05-01 14:51 | 20.64814 | -77.39748 | 33004 ft | 477 kts | 113° |
| 2026-05-01 14:52 | 20.60769 | -77.30049 | 33008 ft | 476 kts | 113° |
| 2026-05-01 14:53 | 20.56728 | -77.20381 | 33012 ft | 475 kts | 113° |
| 2026-05-01 14:53 | 20.54035 | -77.13946 | 33003 ft | 475 kts | 113° |
| 2026-05-01 14:53 | 20.52702 | -77.10764 | 32615 ft | 479 kts | 113° |
| 2026-05-01 14:54 | 20.51349 | -77.07535 | 31960 ft | 475 kts | 113° |
| 2026-05-01 14:54 | 20.50006 | -77.04330 | 31241 ft | 471 kts | 113° |
| 2026-05-01 14:54 | 20.48679 | -77.01166 | 30537 ft | 464 kts | 113° |
| 2026-05-01 14:54 | 20.47369 | -76.98051 | 29817 ft | 458 kts | 113° |
| 2026-05-01 14:55 | 20.46069 | -76.94955 | 29023 ft | 457 kts | 113° |
| 2026-05-01 14:55 | 20.44774 | -76.91878 | 28250 ft | 453 kts | 113° |
| 2026-05-01 14:55 | 20.43482 | -76.88809 | 27500 ft | 455 kts | 113° |
| 2026-05-01 14:55 | 20.42203 | -76.85767 | 26785 ft | 455 kts | 113° |
| 2026-05-01 14:56 | 20.40911 | -76.82699 | 26077 ft | 453 kts | 114° |
| 2026-05-01 14:56 | 20.39626 | -76.79651 | 25384 ft | 449 kts | 114° |
| 2026-05-01 14:56 | 20.38352 | -76.76630 | 24708 ft | 445 kts | 114° |
| 2026-05-01 14:56 | 20.37090 | -76.73637 | 24045 ft | 441 kts | 114° |
| 2026-05-01 14:57 | 20.35837 | -76.70670 | 23358 ft | 438 kts | 114° |
| 2026-05-01 14:57 | 20.33360 | -76.64805 | 21840 ft | 430 kts | 114° |
| 2026-05-01 14:57 | 20.32152 | -76.61952 | 21118 ft | 426 kts | 114° |
| 2026-05-01 14:58 | 20.30948 | -76.59091 | 20406 ft | 421 kts | 113° |
| 2026-05-01 14:58 | 20.29749 | -76.56263 | 19710 ft | 417 kts | 113° |
| 2026-05-01 14:58 | 20.28555 | -76.53456 | 19023 ft | 414 kts | 113° |
| 2026-05-01 14:58 | 20.27374 | -76.50671 | 18356 ft | 412 kts | 113° |
| 2026-05-01 14:59 | 20.26204 | -76.47903 | 17601 ft | 408 kts | 113° |
| 2026-05-01 14:59 | 20.25045 | -76.45167 | 16751 ft | 402 kts | 113° |
| 2026-05-01 14:59 | 20.23905 | -76.42488 | 15909 ft | 393 kts | 113° |
| 2026-05-01 14:59 | 20.22810 | -76.39911 | 15088 ft | 381 kts | 113° |
| 2026-05-01 15:00 | 20.20688 | -76.34906 | 13458 ft | 362 kts | 113° |
| 2026-05-01 15:00 | 20.19667 | -76.32492 | 12575 ft | 353 kts | 113° |
| 2026-05-01 15:00 | 20.18638 | -76.30149 | 11737 ft | 346 kts | 116° |
| 2026-05-01 15:01 | 20.17294 | -76.28055 | 10899 ft | 341 kts | 129° |
| 2026-05-01 15:01 | 20.15635 | -76.26276 | 10115 ft | 336 kts | 136° |
| 2026-05-01 15:01 | 20.13958 | -76.24614 | 9529 ft | 323 kts | 135° |
| 2026-05-01 15:01 | 20.12384 | -76.23005 | 8928 ft | 314 kts | 135° |
| 2026-05-01 15:02 | 20.10826 | -76.21427 | 8338 ft | 305 kts | 135° |
| 2026-05-01 15:02 | 20.09791 | -76.20391 | 7969 ft | 299 kts | 136° |
| 2026-05-01 15:02 | 20.07819 | -76.18421 | 7336 ft | 288 kts | 136° |
| 2026-05-01 15:02 | 20.06377 | -76.16972 | 6863 ft | 282 kts | 136° |
| 2026-05-01 15:03 | 20.04939 | -76.15581 | 6388 ft | 277 kts | 142° |
| 2026-05-01 15:03 | 20.03267 | -76.14602 | 5883 ft | 273 kts | 156° |
| 2026-05-01 15:03 | 20.01529 | -76.13824 | 5390 ft | 268 kts | 155° |
| 2026-05-01 15:03 | 19.99883 | -76.13051 | 4909 ft | 254 kts | 155° |
| 2026-05-01 15:04 | 19.98347 | -76.12197 | 4493 ft | 244 kts | 143° |
| 2026-05-01 15:04 | 19.97127 | -76.10982 | 4361 ft | 246 kts | 129° |
| 2026-05-01 15:04 | 19.96242 | -76.09425 | 3982 ft | 243 kts | 112° |
| 2026-05-01 15:04 | 19.95807 | -76.07758 | 3614 ft | 228 kts | 97° |
| 2026-05-01 15:05 | 19.95785 | -76.06120 | 3246 ft | 217 kts | 84° |
| 2026-05-01 15:05 | 19.95898 | -76.04549 | 2998 ft | 205 kts | 86° |
| 2026-05-01 15:05 | 19.95968 | -76.03053 | 2990 ft | 203 kts | 86° |
| 2026-05-01 15:05 | 19.96067 | -76.01537 | 2992 ft | 207 kts | 84° |
| 2026-05-01 15:06 | 19.96166 | -76.00041 | 2895 ft | 203 kts | 85° |
| 2026-05-01 15:06 | 19.96236 | -75.98572 | 2645 ft | 191 kts | 86° |
| 2026-05-01 15:06 | 19.96337 | -75.97250 | 2407 ft | 172 kts | 85° |
| 2026-05-01 15:06 | 19.96390 | -75.96029 | 2202 ft | 164 kts | 87° |
| 2026-05-01 15:07 | 19.96467 | -75.94850 | 2005 ft | 148 kts | 84° |
| 2026-05-01 15:07 | 19.96526 | -75.93805 | 1822 ft | 140 kts | 86° |
| 2026-05-01 15:07 | 19.96589 | -75.92783 | 1640 ft | 136 kts | 85° |
| 2026-05-01 15:07 | 19.96631 | -75.91788 | 1460 ft | 135 kts | 85° |
| 2026-05-01 15:08 | 19.96717 | -75.90798 | 1294 ft | 134 kts | 83° |
| 2026-05-01 15:08 | 19.96774 | -75.89811 | 1125 ft | 136 kts | 87° |
| 2026-05-01 15:08 | 19.96812 | -75.88802 | 950 ft | 137 kts | 86° |
| 2026-05-01 15:08 | 19.96897 | -75.87788 | 763 ft | 139 kts | 85° |
| 2026-05-01 15:09 | 19.96942 | -75.86766 | 584 ft | 139 kts | 86° |
| 2026-05-01 15:09 | 19.96969 | -75.85741 | 370 ft | 139 kts | 89° |
| 2026-05-01 15:09 | 19.96974 | -75.84727 | 233 ft | 131 kts | 86° |
| 2026-05-01 15:09 | 19.96985 | -75.83909 | 219 ft | 87 kts | 89° |
| 2026-05-01 15:10 | 19.96992 | -75.83569 | 222 ft | 13 kts | 75° |
| 2026-05-01 15:10 | 19.97139 | -75.83589 | 218 ft | 14 kts | 276° |
| 2026-05-01 15:10 | 19.97141 | -75.83716 | 217 ft | 19 kts | 269° |
| 2026-05-01 15:11 | 19.97142 | -75.83850 | 217 ft | 12 kts | 271° |
| 2026-05-01 15:11 | 19.97158 | -75.83962 | 216 ft | 4 kts | 274° |
| 2026-05-01 15:11 | 19.97160 | -75.84007 | 216 ft | 9 kts | 261° |
| 2026-05-01 15:12 | 19.97120 | -75.84058 | 216 ft | 11 kts | 183° |
| 2026-05-01 15:12 | 19.97057 | -75.84079 | 217 ft | 5 kts | 243° |
| 2026-05-01 15:12 | 19.97055 | -75.84096 | 217 ft | 5 kts | 265° |
| 2026-05-01 15:13 | 19.97081 | -75.84118 | 216 ft | 1 kts | 4° |
| 2026-05-01 15:14 | 19.97083 | -75.84118 | 216 ft | 0 kts | 4° |